sensor_id;sensor_type;location;lat;lon;timestamp;temperature;humidity
66328;DHT22;53133;52.862;6.602;2022-08-03T00:01:50;20.90;97.10
66328;DHT22;53133;52.862;6.602;2022-08-03T00:04:15;20.90;97.00
66328;DHT22;53133;52.862;6.602;2022-08-03T00:06:41;20.90;97.00
66328;DHT22;53133;52.862;6.602;2022-08-03T00:09:07;20.90;97.00
66328;DHT22;53133;52.862;6.602;2022-08-03T00:11:33;20.90;97.00
66328;DHT22;53133;52.862;6.602;2022-08-03T00:13:58;20.90;97.10
66328;DHT22;53133;52.862;6.602;2022-08-03T00:16:24;20.90;97.10
66328;DHT22;53133;52.862;6.602;2022-08-03T00:18:50;20.80;97.10
66328;DHT22;53133;52.862;6.602;2022-08-03T00:21:17;20.80;97.10
66328;DHT22;53133;52.862;6.602;2022-08-03T00:23:42;20.80;97.10
66328;DHT22;53133;52.862;6.602;2022-08-03T00:26:08;20.80;97.10
66328;DHT22;53133;52.862;6.602;2022-08-03T00:28:34;20.80;97.10
66328;DHT22;53133;52.862;6.602;2022-08-03T00:30:59;20.80;97.10
66328;DHT22;53133;52.862;6.602;2022-08-03T00:33:25;20.80;97.20
66328;DHT22;53133;52.862;6.602;2022-08-03T00:35:51;20.80;97.20
66328;DHT22;53133;52.862;6.602;2022-08-03T00:38:18;20.80;97.20
66328;DHT22;53133;52.862;6.602;2022-08-03T00:40:43;20.80;97.30
66328;DHT22;53133;52.862;6.602;2022-08-03T00:43:09;20.70;97.40
66328;DHT22;53133;52.862;6.602;2022-08-03T00:45:37;20.70;97.50
66328;DHT22;53133;52.862;6.602;2022-08-03T00:48:05;20.70;97.60
66328;DHT22;53133;52.862;6.602;2022-08-03T00:50:34;20.60;97.60
66328;DHT22;53133;52.862;6.602;2022-08-03T00:53:01;20.60;97.70
66328;DHT22;53133;52.862;6.602;2022-08-03T00:55:27;20.60;97.70
66328;DHT22;53133;52.862;6.602;2022-08-03T00:57:53;20.50;97.80
66328;DHT22;53133;52.862;6.602;2022-08-03T01:00:23;20.50;97.80
66328;DHT22;53133;52.862;6.602;2022-08-03T01:02:49;20.50;97.90
66328;DHT22;53133;52.862;6.602;2022-08-03T01:05:15;20.40;98.00
66328;DHT22;53133;52.862;6.602;2022-08-03T01:18:17;20.20;98.60
66328;DHT22;53133;52.862;6.602;2022-08-03T01:20:48;20.20;98.60
66328;DHT22;53133;52.862;6.602;2022-08-03T01:23:34;20.10;98.70
66328;DHT22;53133;52.862;6.602;2022-08-03T01:29:06;20.10;98.80
66328;DHT22;53133;52.862;6.602;2022-08-03T01:31:42;20.00;98.80
66328;DHT22;53133;52.862;6.602;2022-08-03T01:34:11;20.00;98.90
66328;DHT22;53133;52.862;6.602;2022-08-03T01:36:45;20.00;98.90
66328;DHT22;53133;52.862;6.602;2022-08-03T01:39:14;20.00;98.90
66328;DHT22;53133;52.862;6.602;2022-08-03T01:41:48;20.00;98.90
66328;DHT22;53133;52.862;6.602;2022-08-03T01:44:15;20.00;99.00
66328;DHT22;53133;52.862;6.602;2022-08-03T01:46:42;20.00;99.00
66328;DHT22;53133;52.862;6.602;2022-08-03T01:49:09;19.90;99.00
66328;DHT22;53133;52.862;6.602;2022-08-03T01:51:41;20.00;99.10
66328;DHT22;53133;52.862;6.602;2022-08-03T01:54:09;19.90;99.00
66328;DHT22;53133;52.862;6.602;2022-08-03T01:56:37;20.00;99.10
66328;DHT22;53133;52.862;6.602;2022-08-03T01:59:03;19.90;99.00
66328;DHT22;53133;52.862;6.602;2022-08-03T02:01:31;19.90;99.10
66328;DHT22;53133;52.862;6.602;2022-08-03T02:03:59;19.90;99.00
66328;DHT22;53133;52.862;6.602;2022-08-03T02:06:26;19.90;99.00
66328;DHT22;53133;52.862;6.602;2022-08-03T02:08:52;19.90;99.00
66328;DHT22;53133;52.862;6.602;2022-08-03T02:11:19;19.90;99.10
66328;DHT22;53133;52.862;6.602;2022-08-03T02:13:46;19.90;99.00
66328;DHT22;53133;52.862;6.602;2022-08-03T02:16:12;19.90;99.10
66328;DHT22;53133;52.862;6.602;2022-08-03T02:18:40;19.80;99.10
66328;DHT22;53133;52.862;6.602;2022-08-03T02:21:08;19.90;99.10
66328;DHT22;53133;52.862;6.602;2022-08-03T02:23:35;19.90;99.20
66328;DHT22;53133;52.862;6.602;2022-08-03T02:26:03;19.80;99.20
66328;DHT22;53133;52.862;6.602;2022-08-03T02:28:33;19.80;99.20
66328;DHT22;53133;52.862;6.602;2022-08-03T02:31:03;19.80;99.20
66328;DHT22;53133;52.862;6.602;2022-08-03T02:33:35;19.80;99.30
66328;DHT22;53133;52.862;6.602;2022-08-03T02:36:02;19.80;99.30
66328;DHT22;53133;52.862;6.602;2022-08-03T02:38:32;19.80;99.30
66328;DHT22;53133;52.862;6.602;2022-08-03T02:40:59;19.80;99.40
66328;DHT22;53133;52.862;6.602;2022-08-03T02:43:26;19.70;99.30
66328;DHT22;53133;52.862;6.602;2022-08-03T02:45:54;19.70;99.40
66328;DHT22;53133;52.862;6.602;2022-08-03T02:48:22;19.70;99.40
66328;DHT22;53133;52.862;6.602;2022-08-03T02:50:52;19.70;99.40
66328;DHT22;53133;52.862;6.602;2022-08-03T02:53:19;19.70;99.40
66328;DHT22;53133;52.862;6.602;2022-08-03T02:55:46;19.70;99.50
66328;DHT22;53133;52.862;6.602;2022-08-03T02:58:13;19.70;99.50
66328;DHT22;53133;52.862;6.602;2022-08-03T03:00:39;19.70;99.50
66328;DHT22;53133;52.862;6.602;2022-08-03T03:03:05;19.70;99.50
66328;DHT22;53133;52.862;6.602;2022-08-03T03:05:32;19.70;99.50
66328;DHT22;53133;52.862;6.602;2022-08-03T03:07:58;19.60;99.50
66328;DHT22;53133;52.862;6.602;2022-08-03T03:10:24;19.60;99.60
66328;DHT22;53133;52.862;6.602;2022-08-03T03:12:54;19.60;99.90
66328;DHT22;53133;52.862;6.602;2022-08-03T03:15:21;19.60;99.60
66328;DHT22;53133;52.862;6.602;2022-08-03T03:17:49;19.60;99.60
66328;DHT22;53133;52.862;6.602;2022-08-03T03:20:16;19.60;99.70
66328;DHT22;53133;52.862;6.602;2022-08-03T03:22:42;19.50;99.70
66328;DHT22;53133;52.862;6.602;2022-08-03T03:25:09;19.60;99.70
66328;DHT22;53133;52.862;6.602;2022-08-03T03:27:35;19.50;99.70
66328;DHT22;53133;52.862;6.602;2022-08-03T03:30:02;19.50;99.70
66328;DHT22;53133;52.862;6.602;2022-08-03T03:32:28;19.50;99.90
66328;DHT22;53133;52.862;6.602;2022-08-03T03:34:54;19.50;99.70
66328;DHT22;53133;52.862;6.602;2022-08-03T03:37:21;19.50;99.70
66328;DHT22;53133;52.862;6.602;2022-08-03T03:39:46;19.50;99.80
66328;DHT22;53133;52.862;6.602;2022-08-03T03:42:12;19.50;99.80
66328;DHT22;53133;52.862;6.602;2022-08-03T03:44:38;19.50;99.80
66328;DHT22;53133;52.862;6.602;2022-08-03T03:47:04;19.40;99.80
66328;DHT22;53133;52.862;6.602;2022-08-03T03:49:30;19.50;99.80
66328;DHT22;53133;52.862;6.602;2022-08-03T03:51:57;19.40;99.90
66328;DHT22;53133;52.862;6.602;2022-08-03T03:54:22;19.50;99.90
66328;DHT22;53133;52.862;6.602;2022-08-03T03:56:48;19.40;99.90
66328;DHT22;53133;52.862;6.602;2022-08-03T03:59:13;19.40;99.90
66328;DHT22;53133;52.862;6.602;2022-08-03T04:01:39;19.40;99.90
66328;DHT22;53133;52.862;6.602;2022-08-03T04:04:05;19.40;99.90
66328;DHT22;53133;52.862;6.602;2022-08-03T04:06:49;19.40;99.90
66328;DHT22;53133;52.862;6.602;2022-08-03T04:09:37;19.30;99.90
66328;DHT22;53133;52.862;6.602;2022-08-03T04:12:25;19.40;99.90
66328;DHT22;53133;52.862;6.602;2022-08-03T04:14:53;19.30;99.90
66328;DHT22;53133;52.862;6.602;2022-08-03T04:17:23;19.30;99.90
66328;DHT22;53133;52.862;6.602;2022-08-03T04:19:52;19.30;99.90
66328;DHT22;53133;52.862;6.602;2022-08-03T04:22:23;19.30;99.90
66328;DHT22;53133;52.862;6.602;2022-08-03T04:24:52;19.30;99.90
66328;DHT22;53133;52.862;6.602;2022-08-03T04:27:26;19.20;99.90
66328;DHT22;53133;52.862;6.602;2022-08-03T04:29:54;19.20;99.90
66328;DHT22;53133;52.862;6.602;2022-08-03T04:32:22;19.20;99.90
66328;DHT22;53133;52.862;6.602;2022-08-03T04:34:50;19.20;99.90
66328;DHT22;53133;52.862;6.602;2022-08-03T04:37:34;19.20;99.90
66328;DHT22;53133;52.862;6.602;2022-08-03T04:40:06;19.30;99.90
66328;DHT22;53133;52.862;6.602;2022-08-03T04:42:33;19.30;99.90
66328;DHT22;53133;52.862;6.602;2022-08-03T04:45:01;19.30;99.90
66328;DHT22;53133;52.862;6.602;2022-08-03T04:47:30;19.30;99.90
66328;DHT22;53133;52.862;6.602;2022-08-03T04:49:56;19.30;99.90
66328;DHT22;53133;52.862;6.602;2022-08-03T04:52:22;19.30;99.90
66328;DHT22;53133;52.862;6.602;2022-08-03T04:54:48;19.30;99.90
66328;DHT22;53133;52.862;6.602;2022-08-03T04:57:13;19.40;99.90
66328;DHT22;53133;52.862;6.602;2022-08-03T04:59:39;19.30;99.90
66328;DHT22;53133;52.862;6.602;2022-08-03T05:02:05;19.40;99.90
66328;DHT22;53133;52.862;6.602;2022-08-03T05:04:31;19.40;99.90
66328;DHT22;53133;52.862;6.602;2022-08-03T05:06:57;19.40;99.90
66328;DHT22;53133;52.862;6.602;2022-08-03T05:09:22;19.40;99.90
66328;DHT22;53133;52.862;6.602;2022-08-03T05:11:48;19.40;99.90
66328;DHT22;53133;52.862;6.602;2022-08-03T05:14:13;19.40;99.90
66328;DHT22;53133;52.862;6.602;2022-08-03T05:16:39;19.40;99.90
66328;DHT22;53133;52.862;6.602;2022-08-03T05:19:04;19.50;99.90
66328;DHT22;53133;52.862;6.602;2022-08-03T05:21:30;19.50;99.90
66328;DHT22;53133;52.862;6.602;2022-08-03T05:23:56;19.50;99.90
66328;DHT22;53133;52.862;6.602;2022-08-03T05:26:21;19.50;99.90
66328;DHT22;53133;52.862;6.602;2022-08-03T05:28:47;19.60;99.90
66328;DHT22;53133;52.862;6.602;2022-08-03T05:31:13;19.60;99.90
66328;DHT22;53133;52.862;6.602;2022-08-03T05:33:38;19.70;99.90
66328;DHT22;53133;52.862;6.602;2022-08-03T05:36:04;19.70;99.90
66328;DHT22;53133;52.862;6.602;2022-08-03T05:38:31;19.70;99.90
66328;DHT22;53133;52.862;6.602;2022-08-03T05:40:57;19.80;99.90
66328;DHT22;53133;52.862;6.602;2022-08-03T05:43:22;19.80;99.90
66328;DHT22;53133;52.862;6.602;2022-08-03T05:45:48;19.90;99.90
66328;DHT22;53133;52.862;6.602;2022-08-03T05:48:14;19.90;99.90
66328;DHT22;53133;52.862;6.602;2022-08-03T05:50:40;19.90;99.90
66328;DHT22;53133;52.862;6.602;2022-08-03T05:53:05;19.90;99.90
66328;DHT22;53133;52.862;6.602;2022-08-03T05:55:31;20.00;99.90
66328;DHT22;53133;52.862;6.602;2022-08-03T05:57:56;20.00;99.90
66328;DHT22;53133;52.862;6.602;2022-08-03T06:00:22;20.10;99.90
66328;DHT22;53133;52.862;6.602;2022-08-03T06:02:48;20.10;99.90
66328;DHT22;53133;52.862;6.602;2022-08-03T06:05:14;20.10;99.90
66328;DHT22;53133;52.862;6.602;2022-08-03T06:07:39;20.20;99.90
66328;DHT22;53133;52.862;6.602;2022-08-03T06:10:05;20.30;99.90
66328;DHT22;53133;52.862;6.602;2022-08-03T06:12:31;20.30;99.90
66328;DHT22;53133;52.862;6.602;2022-08-03T06:15:00;20.30;99.90
66328;DHT22;53133;52.862;6.602;2022-08-03T06:17:26;20.30;99.90
66328;DHT22;53133;52.862;6.602;2022-08-03T06:19:53;20.40;99.90
66328;DHT22;53133;52.862;6.602;2022-08-03T06:22:19;20.40;99.90
66328;DHT22;53133;52.862;6.602;2022-08-03T06:24:44;20.50;99.90
66328;DHT22;53133;52.862;6.602;2022-08-03T06:27:10;20.50;99.90
66328;DHT22;53133;52.862;6.602;2022-08-03T06:29:36;20.40;99.90
66328;DHT22;53133;52.862;6.602;2022-08-03T06:32:02;20.50;99.90
66328;DHT22;53133;52.862;6.602;2022-08-03T06:34:28;20.50;99.90
66328;DHT22;53133;52.862;6.602;2022-08-03T06:36:53;20.50;99.90
66328;DHT22;53133;52.862;6.602;2022-08-03T06:39:20;20.60;99.90
66328;DHT22;53133;52.862;6.602;2022-08-03T06:41:46;20.60;99.90
66328;DHT22;53133;52.862;6.602;2022-08-03T06:44:11;20.60;99.90
66328;DHT22;53133;52.862;6.602;2022-08-03T06:46:37;20.60;99.90
66328;DHT22;53133;52.862;6.602;2022-08-03T06:49:03;20.70;99.90
66328;DHT22;53133;52.862;6.602;2022-08-03T06:51:29;20.60;99.80
66328;DHT22;53133;52.862;6.602;2022-08-03T06:53:55;20.70;99.80
66328;DHT22;53133;52.862;6.602;2022-08-03T06:56:20;20.70;99.80
66328;DHT22;53133;52.862;6.602;2022-08-03T06:58:46;20.70;99.80
66328;DHT22;53133;52.862;6.602;2022-08-03T07:01:12;20.70;99.70
66328;DHT22;53133;52.862;6.602;2022-08-03T07:03:38;20.80;99.70
66328;DHT22;53133;52.862;6.602;2022-08-03T07:06:05;20.80;99.70
66328;DHT22;53133;52.862;6.602;2022-08-03T07:08:30;20.80;99.70
66328;DHT22;53133;52.862;6.602;2022-08-03T07:10:56;20.80;99.70
66328;DHT22;53133;52.862;6.602;2022-08-03T07:13:21;20.90;99.70
66328;DHT22;53133;52.862;6.602;2022-08-03T07:15:47;20.80;99.60
66328;DHT22;53133;52.862;6.602;2022-08-03T07:18:13;20.80;99.60
66328;DHT22;53133;52.862;6.602;2022-08-03T07:20:38;20.80;99.60
66328;DHT22;53133;52.862;6.602;2022-08-03T07:23:05;20.90;99.70
66328;DHT22;53133;52.862;6.602;2022-08-03T07:25:30;20.80;99.70
66328;DHT22;53133;52.862;6.602;2022-08-03T07:27:56;20.80;99.60
66328;DHT22;53133;52.862;6.602;2022-08-03T07:30:22;20.80;99.70
66328;DHT22;53133;52.862;6.602;2022-08-03T07:32:47;20.90;99.70
66328;DHT22;53133;52.862;6.602;2022-08-03T07:35:13;20.90;99.80
66328;DHT22;53133;52.862;6.602;2022-08-03T07:37:38;20.90;99.80
66328;DHT22;53133;52.862;6.602;2022-08-03T07:40:05;20.90;99.80
66328;DHT22;53133;52.862;6.602;2022-08-03T07:42:31;21.00;99.80
66328;DHT22;53133;52.862;6.602;2022-08-03T07:44:57;21.00;99.80
66328;DHT22;53133;52.862;6.602;2022-08-03T07:47:25;21.00;99.80
66328;DHT22;53133;52.862;6.602;2022-08-03T07:49:51;21.00;99.80
66328;DHT22;53133;52.862;6.602;2022-08-03T07:52:17;21.10;99.90
66328;DHT22;53133;52.862;6.602;2022-08-03T07:55:02;21.10;99.90
66328;DHT22;53133;52.862;6.602;2022-08-03T07:57:28;21.20;99.80
66328;DHT22;53133;52.862;6.602;2022-08-03T07:59:53;21.20;99.70
66328;DHT22;53133;52.862;6.602;2022-08-03T08:02:19;21.30;99.70
66328;DHT22;53133;52.862;6.602;2022-08-03T08:04:44;21.30;99.60
66328;DHT22;53133;52.862;6.602;2022-08-03T08:07:10;21.30;99.50
66328;DHT22;53133;52.862;6.602;2022-08-03T08:09:36;21.40;99.50
66328;DHT22;53133;52.862;6.602;2022-08-03T08:12:01;21.40;99.40
66328;DHT22;53133;52.862;6.602;2022-08-03T08:14:27;21.40;99.30
66328;DHT22;53133;52.862;6.602;2022-08-03T08:16:53;21.50;99.20
66328;DHT22;53133;52.862;6.602;2022-08-03T08:19:19;21.50;99.10
66328;DHT22;53133;52.862;6.602;2022-08-03T08:21:45;21.50;99.10
66328;DHT22;53133;52.862;6.602;2022-08-03T08:24:10;21.50;99.20
66328;DHT22;53133;52.862;6.602;2022-08-03T08:26:36;21.60;99.20
66328;DHT22;53133;52.862;6.602;2022-08-03T08:29:02;21.60;99.10
66328;DHT22;53133;52.862;6.602;2022-08-03T08:31:28;21.60;99.00
66328;DHT22;53133;52.862;6.602;2022-08-03T08:33:54;21.70;98.90
66328;DHT22;53133;52.862;6.602;2022-08-03T08:36:19;21.70;98.90
66328;DHT22;53133;52.862;6.602;2022-08-03T08:38:45;21.80;98.80
66328;DHT22;53133;52.862;6.602;2022-08-03T08:41:12;21.90;98.70
66328;DHT22;53133;52.862;6.602;2022-08-03T08:43:38;21.90;98.60
66328;DHT22;53133;52.862;6.602;2022-08-03T08:46:04;21.90;98.60
66328;DHT22;53133;52.862;6.602;2022-08-03T08:48:32;22.00;98.50
66328;DHT22;53133;52.862;6.602;2022-08-03T08:51:00;22.00;98.50
66328;DHT22;53133;52.862;6.602;2022-08-03T08:53:27;22.10;98.30
66328;DHT22;53133;52.862;6.602;2022-08-03T08:55:58;22.20;98.20
66328;DHT22;53133;52.862;6.602;2022-08-03T08:58:27;22.20;98.10
66328;DHT22;53133;52.862;6.602;2022-08-03T09:00:52;22.20;98.00
66328;DHT22;53133;52.862;6.602;2022-08-03T09:03:18;22.30;98.00
66328;DHT22;53133;52.862;6.602;2022-08-03T09:05:44;22.40;97.90
66328;DHT22;53133;52.862;6.602;2022-08-03T09:08:09;22.40;97.80
66328;DHT22;53133;52.862;6.602;2022-08-03T09:10:35;22.40;97.80
66328;DHT22;53133;52.862;6.602;2022-08-03T09:13:01;22.50;97.80
66328;DHT22;53133;52.862;6.602;2022-08-03T09:15:28;22.50;97.80
66328;DHT22;53133;52.862;6.602;2022-08-03T09:17:57;22.60;97.80
66328;DHT22;53133;52.862;6.602;2022-08-03T09:20:25;22.60;97.70
66328;DHT22;53133;52.862;6.602;2022-08-03T09:23:01;22.70;97.60
66328;DHT22;53133;52.862;6.602;2022-08-03T09:25:32;22.80;97.60
66328;DHT22;53133;52.862;6.602;2022-08-03T09:28:08;22.80;97.60
66328;DHT22;53133;52.862;6.602;2022-08-03T09:30:39;22.80;97.40
66328;DHT22;53133;52.862;6.602;2022-08-03T09:33:07;22.80;97.40
66328;DHT22;53133;52.862;6.602;2022-08-03T09:35:40;22.90;97.40
66328;DHT22;53133;52.862;6.602;2022-08-03T09:38:14;23.00;97.30
66328;DHT22;53133;52.862;6.602;2022-08-03T09:40:40;23.00;97.20
66328;DHT22;53133;52.862;6.602;2022-08-03T09:43:06;23.10;97.10
66328;DHT22;53133;52.862;6.602;2022-08-03T09:45:37;23.10;97.00
66328;DHT22;53133;52.862;6.602;2022-08-03T09:48:22;23.20;97.00
66328;DHT22;53133;52.862;6.602;2022-08-03T09:50:50;23.20;96.80
66328;DHT22;53133;52.862;6.602;2022-08-03T09:53:16;23.30;96.80
66328;DHT22;53133;52.862;6.602;2022-08-03T09:55:59;23.30;96.60
66328;DHT22;53133;52.862;6.602;2022-08-03T09:58:28;23.40;96.60
66328;DHT22;53133;52.862;6.602;2022-08-03T10:01:01;23.40;96.70
66328;DHT22;53133;52.862;6.602;2022-08-03T10:03:32;23.50;96.40
66328;DHT22;53133;52.862;6.602;2022-08-03T10:05:58;23.50;96.20
66328;DHT22;53133;52.862;6.602;2022-08-03T10:08:24;23.50;96.20
66328;DHT22;53133;52.862;6.602;2022-08-03T10:10:51;23.60;96.10
66328;DHT22;53133;52.862;6.602;2022-08-03T10:13:19;23.60;96.00
66328;DHT22;53133;52.862;6.602;2022-08-03T10:15:46;23.70;96.10
66328;DHT22;53133;52.862;6.602;2022-08-03T10:18:12;23.70;95.80
66328;DHT22;53133;52.862;6.602;2022-08-03T10:20:44;23.80;96.00
66328;DHT22;53133;52.862;6.602;2022-08-03T10:23:13;23.80;95.70
66328;DHT22;53133;52.862;6.602;2022-08-03T10:25:39;23.90;95.60
66328;DHT22;53133;52.862;6.602;2022-08-03T10:28:07;24.00;95.50
66328;DHT22;53133;52.862;6.602;2022-08-03T10:30:36;24.00;95.60
66328;DHT22;53133;52.862;6.602;2022-08-03T10:33:14;24.00;95.40
66328;DHT22;53133;52.862;6.602;2022-08-03T10:35:41;24.10;95.20
66328;DHT22;53133;52.862;6.602;2022-08-03T10:38:20;24.20;95.10
66328;DHT22;53133;52.862;6.602;2022-08-03T10:40:47;24.20;95.00
66328;DHT22;53133;52.862;6.602;2022-08-03T10:43:25;24.30;95.00
66328;DHT22;53133;52.862;6.602;2022-08-03T10:45:52;24.40;95.20
66328;DHT22;53133;52.862;6.602;2022-08-03T10:48:18;24.40;95.10
66328;DHT22;53133;52.862;6.602;2022-08-03T10:50:45;24.50;94.70
66328;DHT22;53133;52.862;6.602;2022-08-03T10:53:12;24.60;94.60
66328;DHT22;53133;52.862;6.602;2022-08-03T10:55:43;24.60;94.20
66328;DHT22;53133;52.862;6.602;2022-08-03T11:01:10;24.80;93.70
66328;DHT22;53133;52.862;6.602;2022-08-03T11:06:21;24.80;93.30
66328;DHT22;53133;52.862;6.602;2022-08-03T11:08:49;24.80;93.20
66328;DHT22;53133;52.862;6.602;2022-08-03T11:11:36;24.80;93.20
66328;DHT22;53133;52.862;6.602;2022-08-03T11:14:08;24.90;93.30
66328;DHT22;53133;52.862;6.602;2022-08-03T11:16:42;24.90;93.20
66328;DHT22;53133;52.862;6.602;2022-08-03T11:19:13;25.00;93.30
66328;DHT22;53133;52.862;6.602;2022-08-03T11:27:25;25.10;93.50
66328;DHT22;53133;52.862;6.602;2022-08-03T11:30:09;25.10;93.40
66328;DHT22;53133;52.862;6.602;2022-08-03T11:43:00;25.30;92.20
66328;DHT22;53133;52.862;6.602;2022-08-03T11:45:26;25.30;92.30
66328;DHT22;53133;52.862;6.602;2022-08-03T11:47:53;25.40;92.20
66328;DHT22;53133;52.862;6.602;2022-08-03T11:50:20;25.50;92.10
66328;DHT22;53133;52.862;6.602;2022-08-03T11:52:47;25.50;91.80
66328;DHT22;53133;52.862;6.602;2022-08-03T11:55:16;25.70;91.90
66328;DHT22;53133;52.862;6.602;2022-08-03T11:57:43;25.80;92.00
66328;DHT22;53133;52.862;6.602;2022-08-03T12:00:31;25.90;91.60
66328;DHT22;53133;52.862;6.602;2022-08-03T12:03:08;25.90;91.40
66328;DHT22;53133;52.862;6.602;2022-08-03T12:05:40;25.90;91.30
66328;DHT22;53133;52.862;6.602;2022-08-03T12:08:07;26.00;91.10
66328;DHT22;53133;52.862;6.602;2022-08-03T12:10:34;26.00;91.00
66328;DHT22;53133;52.862;6.602;2022-08-03T12:13:02;26.10;91.10
66328;DHT22;53133;52.862;6.602;2022-08-03T12:15:31;26.20;90.80
66328;DHT22;53133;52.862;6.602;2022-08-03T12:18:02;26.30;91.20
66328;DHT22;53133;52.862;6.602;2022-08-03T12:20:29;26.30;90.30
66328;DHT22;53133;52.862;6.602;2022-08-03T12:23:04;26.30;90.30
66328;DHT22;53133;52.862;6.602;2022-08-03T12:25:34;26.40;89.40
66328;DHT22;53133;52.862;6.602;2022-08-03T12:28:15;26.50;89.80
66328;DHT22;53133;52.862;6.602;2022-08-03T12:30:42;26.50;88.20
66328;DHT22;53133;52.862;6.602;2022-08-03T12:33:25;26.50;89.20
66328;DHT22;53133;52.862;6.602;2022-08-03T12:36:08;26.60;89.40
66328;DHT22;53133;52.862;6.602;2022-08-03T12:38:36;26.70;88.60
66328;DHT22;53133;52.862;6.602;2022-08-03T12:43:29;26.80;88.50
66328;DHT22;53133;52.862;6.602;2022-08-03T12:46:15;26.90;88.10
66328;DHT22;53133;52.862;6.602;2022-08-03T12:51:30;27.00;86.80
66328;DHT22;53133;52.862;6.602;2022-08-03T12:53:57;27.00;86.80
66328;DHT22;53133;52.862;6.602;2022-08-03T12:56:23;27.00;86.80
66328;DHT22;53133;52.862;6.602;2022-08-03T12:58:49;27.00;86.30
66328;DHT22;53133;52.862;6.602;2022-08-03T13:01:16;27.10;86.50
66328;DHT22;53133;52.862;6.602;2022-08-03T13:03:46;27.10;87.00
66328;DHT22;53133;52.862;6.602;2022-08-03T13:06:20;27.20;86.20
66328;DHT22;53133;52.862;6.602;2022-08-03T13:08:46;27.20;85.80
66328;DHT22;53133;52.862;6.602;2022-08-03T13:11:20;27.20;86.10
66328;DHT22;53133;52.862;6.602;2022-08-03T13:13:46;27.30;85.30
66328;DHT22;53133;52.862;6.602;2022-08-03T13:16:11;27.30;85.30
66328;DHT22;53133;52.862;6.602;2022-08-03T13:18:37;27.30;84.80
66328;DHT22;53133;52.862;6.602;2022-08-03T13:21:02;27.30;85.40
66328;DHT22;53133;52.862;6.602;2022-08-03T13:23:28;27.30;84.10
66328;DHT22;53133;52.862;6.602;2022-08-03T13:25:54;27.40;84.20
66328;DHT22;53133;52.862;6.602;2022-08-03T13:28:19;27.40;83.00
66328;DHT22;53133;52.862;6.602;2022-08-03T13:30:45;27.50;84.20
66328;DHT22;53133;52.862;6.602;2022-08-03T13:33:11;27.50;83.70
66328;DHT22;53133;52.862;6.602;2022-08-03T13:35:36;27.50;83.40
66328;DHT22;53133;52.862;6.602;2022-08-03T13:38:02;27.50;82.90
66328;DHT22;53133;52.862;6.602;2022-08-03T13:40:28;27.50;82.70
66328;DHT22;53133;52.862;6.602;2022-08-03T13:42:56;27.50;82.50
66328;DHT22;53133;52.862;6.602;2022-08-03T13:45:22;27.50;82.00
66328;DHT22;53133;52.862;6.602;2022-08-03T13:47:48;27.50;82.90
66328;DHT22;53133;52.862;6.602;2022-08-03T13:50:14;27.60;82.80
66328;DHT22;53133;52.862;6.602;2022-08-03T13:52:40;27.60;82.30
66328;DHT22;53133;52.862;6.602;2022-08-03T13:55:06;27.60;82.30
66328;DHT22;53133;52.862;6.602;2022-08-03T13:57:33;27.70;82.90
66328;DHT22;53133;52.862;6.602;2022-08-03T14:00:00;27.70;83.50
66328;DHT22;53133;52.862;6.602;2022-08-03T14:02:25;27.80;83.20
66328;DHT22;53133;52.862;6.602;2022-08-03T14:04:51;27.80;82.80
66328;DHT22;53133;52.862;6.602;2022-08-03T14:07:16;27.80;83.10
66328;DHT22;53133;52.862;6.602;2022-08-03T14:09:42;27.80;82.10
66328;DHT22;53133;52.862;6.602;2022-08-03T14:12:08;27.80;81.40
66328;DHT22;53133;52.862;6.602;2022-08-03T14:14:33;27.90;81.90
66328;DHT22;53133;52.862;6.602;2022-08-03T14:16:59;27.90;82.20
66328;DHT22;53133;52.862;6.602;2022-08-03T14:19:24;27.90;82.70
66328;DHT22;53133;52.862;6.602;2022-08-03T14:21:50;27.90;82.50
66328;DHT22;53133;52.862;6.602;2022-08-03T14:24:16;27.90;82.60
66328;DHT22;53133;52.862;6.602;2022-08-03T14:26:41;27.90;81.80
66328;DHT22;53133;52.862;6.602;2022-08-03T14:29:07;27.90;80.90
66328;DHT22;53133;52.862;6.602;2022-08-03T14:31:32;27.90;82.70
66328;DHT22;53133;52.862;6.602;2022-08-03T14:33:58;27.90;82.30
66328;DHT22;53133;52.862;6.602;2022-08-03T14:36:23;27.90;81.70
66328;DHT22;53133;52.862;6.602;2022-08-03T14:38:49;28.00;81.60
66328;DHT22;53133;52.862;6.602;2022-08-03T14:41:17;28.00;81.00
66328;DHT22;53133;52.862;6.602;2022-08-03T14:43:43;28.00;80.70
66328;DHT22;53133;52.862;6.602;2022-08-03T14:46:09;28.00;80.60
66328;DHT22;53133;52.862;6.602;2022-08-03T14:48:34;28.10;81.30
66328;DHT22;53133;52.862;6.602;2022-08-03T14:51:00;28.10;81.50
66328;DHT22;53133;52.862;6.602;2022-08-03T14:53:25;28.10;80.90
66328;DHT22;53133;52.862;6.602;2022-08-03T14:55:53;28.20;79.10
66328;DHT22;53133;52.862;6.602;2022-08-03T14:58:19;28.20;79.10
66328;DHT22;53133;52.862;6.602;2022-08-03T15:00:45;28.20;77.40
66328;DHT22;53133;52.862;6.602;2022-08-03T15:03:10;28.20;78.00
66328;DHT22;53133;52.862;6.602;2022-08-03T15:05:36;28.10;74.80
66328;DHT22;53133;52.862;6.602;2022-08-03T15:08:01;28.10;73.70
66328;DHT22;53133;52.862;6.602;2022-08-03T15:10:27;28.10;75.10
66328;DHT22;53133;52.862;6.602;2022-08-03T15:12:53;28.10;73.60
66328;DHT22;53133;52.862;6.602;2022-08-03T15:15:19;28.10;73.50
66328;DHT22;53133;52.862;6.602;2022-08-03T15:17:45;28.10;74.50
66328;DHT22;53133;52.862;6.602;2022-08-03T15:20:11;28.10;75.10
66328;DHT22;53133;52.862;6.602;2022-08-03T15:22:38;28.00;75.40
66328;DHT22;53133;52.862;6.602;2022-08-03T15:25:05;28.00;75.40
66328;DHT22;53133;52.862;6.602;2022-08-03T15:27:31;28.00;76.00
66328;DHT22;53133;52.862;6.602;2022-08-03T15:29:56;28.00;75.90
66328;DHT22;53133;52.862;6.602;2022-08-03T15:32:22;28.00;76.10
66328;DHT22;53133;52.862;6.602;2022-08-03T15:34:47;27.90;75.20
66328;DHT22;53133;52.862;6.602;2022-08-03T15:37:13;27.90;75.90
66328;DHT22;53133;52.862;6.602;2022-08-03T15:39:38;27.90;76.60
66328;DHT22;53133;52.862;6.602;2022-08-03T15:42:04;27.90;75.50
66328;DHT22;53133;52.862;6.602;2022-08-03T15:44:30;27.80;75.10
66328;DHT22;53133;52.862;6.602;2022-08-03T15:46:55;27.90;75.30
66328;DHT22;53133;52.862;6.602;2022-08-03T15:49:21;27.80;74.70
66328;DHT22;53133;52.862;6.602;2022-08-03T15:51:46;27.80;73.70
66328;DHT22;53133;52.862;6.602;2022-08-03T15:54:12;27.80;72.70
66328;DHT22;53133;52.862;6.602;2022-08-03T15:56:38;27.80;73.50
66328;DHT22;53133;52.862;6.602;2022-08-03T15:59:05;27.80;72.00
66328;DHT22;53133;52.862;6.602;2022-08-03T16:01:31;27.70;72.20
66328;DHT22;53133;52.862;6.602;2022-08-03T16:03:57;27.70;72.40
66328;DHT22;53133;52.862;6.602;2022-08-03T16:06:23;27.70;70.80
66328;DHT22;53133;52.862;6.602;2022-08-03T16:08:48;27.70;72.00
66328;DHT22;53133;52.862;6.602;2022-08-03T16:11:14;27.60;72.80
66328;DHT22;53133;52.862;6.602;2022-08-03T16:13:40;27.60;73.90